createdAt,value
2022-09-15T00:02:25.446Z,16.70
2022-09-15T00:04:52.376Z,16.60
2022-09-15T00:07:20.478Z,16.60
2022-09-15T00:09:47.255Z,16.60
2022-09-15T00:12:14.059Z,16.60
2022-09-15T00:14:40.864Z,16.50
2022-09-15T00:17:07.751Z,16.40
2022-09-15T00:19:34.715Z,16.40
2022-09-15T00:22:01.522Z,16.30
2022-09-15T00:24:28.371Z,16.30
2022-09-15T00:26:55.262Z,16.40
2022-09-15T00:29:22.175Z,16.30
2022-09-15T00:31:49.188Z,16.30
2022-09-15T00:34:16.280Z,16.30
2022-09-15T00:36:43.061Z,16.30
2022-09-15T00:39:09.914Z,16.20
2022-09-15T00:41:36.775Z,16.20
2022-09-15T00:44:05.985Z,16.20
2022-09-15T00:46:35.475Z,16.10
2022-09-15T00:49:05.346Z,16.10
2022-09-15T00:52:07.288Z,16.00
2022-09-15T00:54:55.839Z,16.00
2022-09-15T00:57:32.158Z,15.90
2022-09-15T01:00:00.349Z,15.90
2022-09-15T01:02:33.012Z,15.90
2022-09-15T01:05:00.934Z,15.90
2022-09-15T01:07:37.487Z,15.90
2022-09-15T01:10:28.467Z,15.80
2022-09-15T01:13:00.168Z,15.80
2022-09-15T01:15:43.628Z,15.70
2022-09-15T01:18:25.989Z,15.70
2022-09-15T01:21:28.167Z,15.70
2022-09-15T01:24:18.918Z,15.70
2022-09-15T01:26:46.493Z,15.70
2022-09-15T01:29:28.036Z,15.70
2022-09-15T01:32:51.147Z,15.70
2022-09-15T01:35:27.669Z,15.60
2022-09-15T01:38:26.512Z,15.50
2022-09-15T01:41:04.225Z,15.50
2022-09-15T01:43:31.067Z,15.50
2022-09-15T01:45:57.956Z,15.50
2022-09-15T01:48:25.405Z,15.50
2022-09-15T01:50:54.753Z,15.50
2022-09-15T01:53:22.289Z,15.50
2022-09-15T01:56:10.059Z,15.60
2022-09-15T01:58:38.276Z,15.50
2022-09-15T02:01:17.689Z,15.40
2022-09-15T02:03:46.070Z,15.40
2022-09-15T02:06:25.787Z,15.30
2022-09-15T02:08:57.359Z,15.30
2022-09-15T02:11:26.607Z,15.30
2022-09-15T02:14:17.263Z,15.20
2022-09-15T02:16:46.716Z,15.20
2022-09-15T02:19:30.858Z,15.10
2022-09-15T02:22:17.668Z,15.10
2022-09-15T02:24:46.141Z,15.10
2022-09-15T02:27:17.766Z,15.10
2022-09-15T02:29:45.291Z,15.10
2022-09-15T02:32:12.132Z,15.10
2022-09-15T02:34:41.195Z,15.10
2022-09-15T02:37:08.319Z,15.10
2022-09-15T02:39:37.136Z,15.10
2022-09-15T02:42:04.069Z,15.10
2022-09-15T02:44:31.027Z,15.10
2022-09-15T02:46:58.747Z,15.10
2022-09-15T02:49:25.491Z,15.10
2022-09-15T02:51:52.322Z,15.10
2022-09-15T02:54:19.131Z,15.10
2022-09-15T02:56:47.051Z,15.10
2022-09-15T02:59:14.230Z,15.10
2022-09-15T03:01:41.192Z,15.10
2022-09-15T03:04:08.049Z,15.10
2022-09-15T03:06:35.119Z,15.10
2022-09-15T03:09:07.193Z,15.10
2022-09-15T03:11:34.343Z,15.10
2022-09-15T03:14:02.828Z,15.10
2022-09-15T03:16:30.546Z,15.20
2022-09-15T03:18:59.316Z,15.20
2022-09-15T03:21:27.243Z,15.20
2022-09-15T03:23:54.023Z,15.20
2022-09-15T03:26:20.827Z,15.20
2022-09-15T03:28:47.610Z,15.10
2022-09-15T03:31:14.510Z,15.10
2022-09-15T03:33:41.405Z,15.10
2022-09-15T03:36:08.961Z,15.10
2022-09-15T03:38:35.771Z,15.10
2022-09-15T03:41:07.761Z,15.00
2022-09-15T03:43:35.139Z,15.00
2022-09-15T03:46:02.290Z,14.90
2022-09-15T03:48:30.467Z,15.00
2022-09-15T03:50:57.274Z,15.00
2022-09-15T03:53:24.076Z,14.90
2022-09-15T03:55:50.971Z,14.90
2022-09-15T03:58:18.504Z,14.90
2022-09-15T04:00:46.053Z,14.90
2022-09-15T04:03:13.004Z,14.90
2022-09-15T04:05:40.360Z,14.90
2022-09-15T04:08:07.179Z,15.00
2022-09-15T04:10:35.033Z,15.00
2022-09-15T04:13:01.901Z,15.00
2022-09-15T04:15:28.697Z,15.00
2022-09-15T04:17:55.707Z,15.00
2022-09-15T04:20:22.504Z,15.00
2022-09-15T04:22:49.356Z,15.00
2022-09-15T04:25:16.567Z,15.00
2022-09-15T04:27:43.402Z,14.90
2022-09-15T04:30:10.562Z,14.90
2022-09-15T04:32:37.462Z,14.80
2022-09-15T04:35:04.947Z,14.80
2022-09-15T04:37:32.240Z,14.90
2022-09-15T04:39:59.621Z,14.90
2022-09-15T04:42:26.850Z,14.90
2022-09-15T04:44:53.606Z,14.90
2022-09-15T04:47:20.726Z,14.90
2022-09-15T04:49:47.535Z,14.90
2022-09-15T04:52:14.311Z,14.90
2022-09-15T04:54:41.076Z,14.90
2022-09-15T04:57:07.908Z,14.80
2022-09-15T04:59:34.874Z,14.80
2022-09-15T05:02:01.724Z,14.80
2022-09-15T05:04:28.569Z,14.80
2022-09-15T05:06:55.506Z,14.70
2022-09-15T05:09:22.396Z,14.70
2022-09-15T05:11:49.403Z,14.60
2022-09-15T05:14:16.195Z,14.60
2022-09-15T05:16:43.162Z,14.60
2022-09-15T05:19:09.994Z,14.50
2022-09-15T05:21:36.787Z,14.50
2022-09-15T05:24:03.678Z,14.50
2022-09-15T05:26:30.591Z,14.50
2022-09-15T05:28:57.644Z,14.50
2022-09-15T05:31:31.510Z,14.50
2022-09-15T05:34:00.189Z,14.50
2022-09-15T05:36:27.005Z,14.50
2022-09-15T05:38:54.137Z,14.40
2022-09-15T05:41:21.429Z,14.40
2022-09-15T05:43:48.739Z,14.40
2022-09-15T05:46:16.285Z,14.30
2022-09-15T05:48:43.139Z,14.30
2022-09-15T05:51:11.088Z,14.40
2022-09-15T05:53:38.043Z,14.40
2022-09-15T05:56:06.910Z,14.30
2022-09-15T05:58:34.046Z,14.40
2022-09-15T06:01:08.054Z,14.40
2022-09-15T06:03:35.487Z,14.40
2022-09-15T06:06:03.649Z,14.40
2022-09-15T06:08:57.469Z,14.40
2022-09-15T06:11:29.542Z,14.30
2022-09-15T06:13:58.869Z,14.40
2022-09-15T06:16:26.609Z,14.30
2022-09-15T06:18:53.881Z,14.30
2022-09-15T06:21:22.535Z,14.30
2022-09-15T06:23:54.461Z,14.30
2022-09-15T06:26:21.505Z,14.30
2022-09-15T06:28:55.886Z,14.30
2022-09-15T06:31:23.210Z,14.40
2022-09-15T06:33:51.469Z,14.40
2022-09-15T06:36:18.709Z,14.40
2022-09-15T06:38:45.824Z,14.40
2022-09-15T06:41:12.836Z,14.40
2022-09-15T06:43:39.913Z,14.40
2022-09-15T06:46:11.009Z,14.50
2022-09-15T06:48:38.359Z,14.60
2022-09-15T06:51:05.891Z,14.60
2022-09-15T06:53:33.471Z,14.60
2022-09-15T06:56:07.810Z,14.50
2022-09-15T06:58:35.162Z,14.60
2022-09-15T07:01:04.033Z,14.60
2022-09-15T07:03:31.249Z,14.70
2022-09-15T07:05:58.357Z,14.70
2022-09-15T07:08:25.286Z,14.70
2022-09-15T07:10:52.366Z,14.80
2022-09-15T07:13:19.199Z,14.80
2022-09-15T07:15:52.049Z,14.90
2022-09-15T07:18:18.983Z,14.90
2022-09-15T07:20:45.876Z,14.90
2022-09-15T07:23:12.745Z,14.90
2022-09-15T07:25:44.986Z,14.90
2022-09-15T07:28:12.050Z,15.00
2022-09-15T07:30:39.428Z,15.00
2022-09-15T07:33:07.443Z,15.10
2022-09-15T07:35:34.556Z,15.20
2022-09-15T07:38:01.614Z,15.20
2022-09-15T07:40:29.054Z,15.30
2022-09-15T07:42:56.085Z,15.30
2022-09-15T07:45:23.013Z,15.40
2022-09-15T07:47:49.932Z,15.40
2022-09-15T07:50:17.112Z,15.40
2022-09-15T07:52:44.025Z,15.50
2022-09-15T07:55:11.182Z,15.50
2022-09-15T07:57:38.092Z,15.40
2022-09-15T08:00:05.648Z,15.40
2022-09-15T08:02:39.091Z,15.50
2022-09-15T08:05:06.396Z,15.50
2022-09-15T08:07:33.247Z,15.50
2022-09-15T08:10:00.052Z,15.60
2022-09-15T08:12:27.138Z,15.50
2022-09-15T08:14:54.078Z,15.60
2022-09-15T08:17:20.927Z,15.60
2022-09-15T08:19:47.755Z,15.60
2022-09-15T08:22:14.615Z,15.60
2022-09-15T08:24:41.453Z,15.60
2022-09-15T08:27:09.042Z,15.70
2022-09-15T08:29:35.947Z,15.60
2022-09-15T08:32:02.942Z,15.70
2022-09-15T08:34:31.015Z,15.80
2022-09-15T08:36:58.245Z,15.90
2022-09-15T08:39:25.126Z,15.90
2022-09-15T08:41:52.957Z,16.00
2022-09-15T08:44:37.375Z,16.10
2022-09-15T08:47:24.058Z,16.10
2022-09-15T08:50:23.650Z,16.20
2022-09-15T08:52:55.717Z,16.30
2022-09-15T08:55:42.735Z,16.20
2022-09-15T08:58:18.898Z,16.20
2022-09-15T09:00:46.897Z,16.20
2022-09-15T09:03:24.360Z,16.30
2022-09-15T09:05:52.049Z,16.40
2022-09-15T09:09:00.236Z,16.40
2022-09-15T09:11:40.826Z,16.40
2022-09-15T09:14:16.562Z,16.40
2022-09-15T09:17:07.889Z,16.40
2022-09-15T09:20:06.478Z,16.50
2022-09-15T09:22:34.555Z,16.50
2022-09-15T09:25:08.554Z,16.50
2022-09-15T09:27:43.515Z,16.50
2022-09-15T09:30:21.319Z,16.50
2022-09-15T09:33:13.206Z,16.60
2022-09-15T09:35:51.562Z,16.70
2022-09-15T09:38:26.768Z,16.80
2022-09-15T09:40:54.435Z,16.80
2022-09-15T09:43:23.388Z,16.90
2022-09-15T09:45:50.367Z,16.90
2022-09-15T09:48:22.085Z,16.90
2022-09-15T09:50:50.619Z,16.90
2022-09-15T09:53:33.039Z,17.00
2022-09-15T09:56:12.042Z,17.10
2022-09-15T09:58:38.966Z,17.00
2022-09-15T10:01:13.730Z,16.90
2022-09-15T10:03:42.018Z,17.10
2022-09-15T10:06:16.057Z,17.10
2022-09-15T10:08:56.231Z,17.20
2022-09-15T10:11:36.289Z,17.20
2022-09-15T10:14:03.187Z,17.20
2022-09-15T10:16:30.168Z,17.20
2022-09-15T10:18:57.068Z,17.20
2022-09-15T10:21:24.626Z,17.10
2022-09-15T10:23:51.631Z,17.20
2022-09-15T10:26:23.571Z,17.30
2022-09-15T10:29:13.654Z,17.30
2022-09-15T10:31:40.764Z,17.40
2022-09-15T10:34:27.464Z,17.30
2022-09-15T10:36:55.203Z,17.30
2022-09-15T10:39:40.577Z,17.40
2022-09-15T10:42:28.557Z,17.50
2022-09-15T10:45:03.661Z,17.60
2022-09-15T10:47:57.733Z,17.70
2022-09-15T10:50:31.036Z,17.80
2022-09-15T10:53:06.907Z,17.80
2022-09-15T10:55:53.077Z,17.90
2022-09-15T10:58:29.612Z,17.90
2022-09-15T11:01:27.775Z,17.90
2022-09-15T11:04:03.414Z,18.00
2022-09-15T11:06:49.508Z,18.20
2022-09-15T11:09:26.018Z,18.20
2022-09-15T11:12:28.392Z,18.10
2022-09-15T11:15:03.327Z,18.10
2022-09-15T11:17:42.319Z,18.10
2022-09-15T11:20:15.386Z,18.00
2022-09-15T11:22:54.600Z,18.00
2022-09-15T11:25:23.356Z,18.30
2022-09-15T11:27:53.939Z,18.40
2022-09-15T11:30:22.644Z,18.50
2022-09-15T11:33:02.228Z,18.50
2022-09-15T11:35:44.437Z,18.50
2022-09-15T11:38:18.198Z,18.60
2022-09-15T11:40:50.776Z,18.70
2022-09-15T11:43:35.031Z,18.80
2022-09-15T11:46:02.944Z,18.80
2022-09-15T11:48:42.472Z,18.80
2022-09-15T11:51:09.376Z,18.80
2022-09-15T11:53:36.134Z,18.80
2022-09-15T11:56:22.382Z,18.90
2022-09-15T11:59:12.710Z,18.90
2022-09-15T12:02:01.390Z,18.80
2022-09-15T12:04:38.891Z,18.70
2022-09-15T12:07:17.286Z,18.50
2022-09-15T12:09:44.099Z,18.40
2022-09-15T12:12:15.654Z,18.40
2022-09-15T12:14:46.689Z,18.40
2022-09-15T12:17:22.776Z,18.30
2022-09-15T12:19:55.780Z,18.30
2022-09-15T12:22:45.563Z,18.20
2022-09-15T12:25:20.269Z,18.30
2022-09-15T12:28:24.813Z,18.30
2022-09-15T12:31:27.935Z,18.30
2022-09-15T12:34:03.598Z,18.30
2022-09-15T12:36:37.529Z,18.30
2022-09-15T12:39:17.851Z,18.30
2022-09-15T12:42:00.227Z,18.30
2022-09-15T12:44:32.748Z,18.30
2022-09-15T12:46:59.652Z,18.40
2022-09-15T12:49:32.016Z,18.50
2022-09-15T12:51:59.722Z,18.60
2022-09-15T12:54:29.124Z,18.70
2022-09-15T12:56:55.934Z,18.70
2022-09-15T12:59:25.355Z,18.80
2022-09-15T13:01:52.866Z,18.90
2022-09-15T13:04:42.067Z,18.90
2022-09-15T13:07:15.370Z,19.00
2022-09-15T13:09:57.678Z,19.00
2022-09-15T13:12:25.086Z,19.10
2022-09-15T13:14:52.015Z,19.20
2022-09-15T13:17:25.665Z,19.10
2022-09-15T13:19:58.221Z,19.10
2022-09-15T13:22:34.801Z,19.10
2022-09-15T13:25:05.834Z,19.00
2022-09-15T13:27:52.403Z,18.90
2022-09-15T13:31:12.679Z,18.80
2022-09-15T13:40:25.368Z,19.10
2022-09-15T13:43:04.990Z,19.20
2022-09-15T13:45:52.831Z,19.20
2022-09-15T13:48:26.309Z,19.20
2022-09-15T13:51:04.386Z,19.10
2022-09-15T13:53:45.188Z,19.20
2022-09-15T13:56:18.369Z,19.30
2022-09-15T13:59:06.810Z,19.40
2022-09-15T14:01:34.599Z,19.30
2022-09-15T14:04:06.585Z,19.30
2022-09-15T14:06:41.632Z,19.20
2022-09-15T14:09:12.901Z,19.10
2022-09-15T14:11:40.693Z,18.90
2022-09-15T14:14:11.761Z,18.80
2022-09-15T14:16:39.339Z,18.70
2022-09-15T14:19:33.804Z,18.60
2022-09-15T14:22:21.320Z,18.60
2022-09-15T14:24:48.358Z,18.60
2022-09-15T14:27:22.248Z,18.60
2022-09-15T14:29:50.269Z,18.70
2022-09-15T14:32:17.195Z,18.80
2022-09-15T14:34:44.283Z,18.90
2022-09-15T14:37:27.930Z,19.20
2022-09-15T14:39:59.076Z,19.40
2022-09-15T14:42:30.582Z,19.40
2022-09-15T14:48:15.532Z,19.30
2022-09-15T14:50:45.899Z,19.40
2022-09-15T14:53:21.918Z,19.40
2022-09-15T14:56:19.143Z,19.50
2022-09-15T14:58:54.162Z,19.60
2022-09-15T15:01:24.109Z,19.60
2022-09-15T15:04:26.023Z,19.50
2022-09-15T15:07:01.488Z,19.50
2022-09-15T15:09:47.830Z,19.50
2022-09-15T15:12:26.135Z,19.50
2022-09-15T15:14:56.315Z,19.50
2022-09-15T15:17:49.098Z,19.50
2022-09-15T15:20:24.145Z,19.60
2022-09-15T15:23:13.916Z,19.60
2022-09-15T15:25:41.773Z,19.60
2022-09-15T15:28:28.283Z,19.50
2022-09-15T15:30:58.722Z,19.50
2022-09-15T15:33:26.758Z,19.40
2022-09-15T15:36:04.069Z,19.30
2022-09-15T15:38:34.161Z,19.20
2022-09-15T15:41:05.461Z,19.20
2022-09-15T15:43:32.466Z,19.10
2022-09-15T15:46:03.679Z,19.20
2022-09-15T15:48:38.149Z,19.20
2022-09-15T15:51:06.480Z,19.30
2022-09-15T15:53:34.229Z,19.30
2022-09-15T15:56:01.220Z,19.30
2022-09-15T15:58:28.186Z,19.30
2022-09-15T16:00:56.495Z,19.20
2022-09-15T16:03:24.223Z,19.10
2022-09-15T16:05:52.787Z,19.20
2022-09-15T16:08:33.604Z,19.20
2022-09-15T16:11:01.944Z,19.10
2022-09-15T16:13:29.278Z,19.10
2022-09-15T16:15:57.821Z,19.10
2022-09-15T16:18:24.911Z,19.10
2022-09-15T16:20:52.037Z,19.10
2022-09-15T16:23:20.433Z,19.10
2022-09-15T16:26:05.573Z,19.00
2022-09-15T16:28:32.679Z,18.70
2022-09-15T16:30:59.823Z,18.50
2022-09-15T16:33:26.817Z,18.40
2022-09-15T16:36:03.856Z,18.30
2022-09-15T16:38:30.856Z,18.20
2022-09-15T16:40:58.093Z,18.10
2022-09-15T16:43:24.988Z,18.10
2022-09-15T16:45:52.572Z,17.90
2022-09-15T16:48:19.862Z,17.90
2022-09-15T16:51:08.436Z,17.90
2022-09-15T16:53:34.042Z,17.90
2022-09-15T16:56:01.046Z,17.90
2022-09-15T16:58:28.204Z,18.00
2022-09-15T17:00:55.997Z,18.00
2022-09-15T17:03:24.368Z,18.00
2022-09-15T17:05:52.377Z,18.00
2022-09-15T17:08:24.239Z,18.00
2022-09-15T17:10:52.829Z,18.00
2022-09-15T17:13:24.009Z,18.10
2022-09-15T17:15:56.217Z,18.10
2022-09-15T17:18:23.305Z,18.10
2022-09-15T17:20:50.690Z,18.10
2022-09-15T17:23:20.523Z,18.10
2022-09-15T17:25:52.004Z,18.10
2022-09-15T17:28:22.774Z,18.10
2022-09-15T17:30:50.821Z,18.10
2022-09-15T17:33:18.588Z,18.00
2022-09-15T17:35:45.813Z,18.00
2022-09-15T17:38:12.819Z,18.00
2022-09-15T17:40:39.676Z,18.00
2022-09-15T17:43:07.095Z,18.00
2022-09-15T17:45:35.173Z,18.10
2022-09-15T17:48:03.078Z,18.00
2022-09-15T17:50:31.138Z,17.90
2022-09-15T17:52:57.985Z,17.80
2022-09-15T17:55:30.373Z,17.80
2022-09-15T17:57:58.301Z,17.80
2022-09-15T18:00:25.984Z,17.80
2022-09-15T18:03:00.704Z,17.80
2022-09-15T18:05:35.922Z,17.70
2022-09-15T18:08:05.391Z,17.70
2022-09-15T18:10:34.151Z,17.70
2022-09-15T18:13:01.254Z,17.60
2022-09-15T18:15:31.552Z,17.70
2022-09-15T18:18:02.738Z,17.70
2022-09-15T18:20:31.587Z,17.70
2022-09-15T18:22:58.773Z,17.70
2022-09-15T18:25:34.468Z,17.70
2022-09-15T18:28:01.935Z,17.70
2022-09-15T18:30:31.002Z,17.70
2022-09-15T18:32:58.224Z,17.70
2022-09-15T18:35:25.227Z,17.60
2022-09-15T18:37:56.893Z,17.60
2022-09-15T18:40:24.009Z,17.50
2022-09-15T18:42:50.881Z,17.50
2022-09-15T18:45:18.321Z,17.50
2022-09-15T18:47:49.152Z,17.50
2022-09-15T18:50:16.740Z,17.50
2022-09-15T18:52:43.825Z,17.50
2022-09-15T18:55:15.112Z,17.50
2022-09-15T18:57:42.546Z,17.40
2022-09-15T19:00:12.151Z,17.50
2022-09-15T19:02:39.174Z,17.50
2022-09-15T19:05:06.692Z,17.50
2022-09-15T19:07:33.673Z,17.50
2022-09-15T19:10:00.683Z,17.50
2022-09-15T19:12:29.124Z,17.50
2022-09-15T19:14:55.891Z,17.50
2022-09-15T19:17:22.736Z,17.50
2022-09-15T19:19:49.611Z,17.50
2022-09-15T19:22:16.488Z,17.40
2022-09-15T19:24:43.259Z,17.40
2022-09-15T19:27:10.121Z,17.50
2022-09-15T19:29:37.200Z,17.50
2022-09-15T19:32:06.127Z,17.50
2022-09-15T19:34:33.263Z,17.40
2022-09-15T19:37:00.165Z,17.40
2022-09-15T19:39:27.023Z,17.40
2022-09-15T19:41:53.845Z,17.40
2022-09-15T19:44:20.924Z,17.30
2022-09-15T19:46:47.900Z,17.30
2022-09-15T19:49:14.752Z,17.30
2022-09-15T19:51:41.709Z,17.20
2022-09-15T19:54:08.579Z,17.20
2022-09-15T19:56:35.598Z,17.20
2022-09-15T19:59:03.347Z,17.10
2022-09-15T20:01:30.590Z,17.20
2022-09-15T20:03:57.536Z,17.20
2022-09-15T20:06:27.757Z,17.20
2022-09-15T20:08:58.609Z,17.10
2022-09-15T20:11:26.295Z,17.10
2022-09-15T20:13:54.369Z,17.20
2022-09-15T20:16:22.100Z,17.10
2022-09-15T20:18:49.606Z,17.10
2022-09-15T20:21:51.484Z,17.10
2022-09-15T20:24:18.883Z,17.00
2022-09-15T20:26:45.815Z,17.00
2022-09-15T20:29:13.162Z,17.00
2022-09-15T20:31:40.049Z,16.90
2022-09-15T20:34:07.024Z,16.90
2022-09-15T20:36:35.972Z,16.90
2022-09-15T20:39:03.981Z,16.90
2022-09-15T20:41:32.093Z,16.90
2022-09-15T20:43:59.190Z,16.80
2022-09-15T20:46:26.295Z,16.80
2022-09-15T20:48:53.365Z,16.80
2022-09-15T20:51:29.476Z,16.70
2022-09-15T20:53:56.908Z,16.70
2022-09-15T20:56:25.544Z,16.70
2022-09-15T20:58:53.350Z,16.80
2022-09-15T21:01:24.877Z,16.80
2022-09-15T21:03:51.949Z,16.80
2022-09-15T21:06:20.554Z,16.80
2022-09-15T21:08:48.119Z,16.80
2022-09-15T21:11:15.871Z,16.70
2022-09-15T21:13:43.413Z,16.70
2022-09-15T21:16:12.205Z,16.70
2022-09-15T21:18:39.673Z,16.70
2022-09-15T21:21:17.499Z,16.60
2022-09-15T21:23:46.465Z,16.70
2022-09-15T21:26:21.181Z,16.60
2022-09-15T21:28:48.309Z,16.60
2022-09-15T21:31:19.757Z,16.60
2022-09-15T21:33:47.140Z,16.60
2022-09-15T21:36:18.995Z,16.70
2022-09-15T21:38:45.936Z,16.60
2022-09-15T21:41:13.946Z,16.60
2022-09-15T21:43:41.698Z,16.50
2022-09-15T21:46:11.476Z,16.50
2022-09-15T21:48:38.676Z,16.50
2022-09-15T21:51:06.001Z,16.50
2022-09-15T21:53:34.900Z,16.50
2022-09-15T21:56:02.680Z,16.40
2022-09-15T21:58:39.059Z,16.40
2022-09-15T22:01:13.952Z,16.40
2022-09-15T22:03:42.353Z,16.30
2022-09-15T22:06:10.451Z,16.30
2022-09-15T22:08:38.464Z,16.30
2022-09-15T22:11:05.713Z,16.30
2022-09-15T22:13:32.744Z,16.30
2022-09-15T22:16:03.918Z,16.30
2022-09-15T22:18:30.809Z,16.30
2022-09-15T22:21:11.332Z,16.20
2022-09-15T22:23:38.685Z,16.20
2022-09-15T22:26:08.732Z,16.20
2022-09-15T22:28:35.693Z,16.30
2022-09-15T22:31:04.040Z,16.20
2022-09-15T22:33:30.847Z,16.30
2022-09-15T22:35:57.825Z,16.20
2022-09-15T22:38:25.166Z,16.20
2022-09-15T22:40:51.933Z,16.20
2022-09-15T22:43:18.762Z,16.20
2022-09-15T22:45:45.877Z,16.20
2022-09-15T22:48:12.729Z,16.10
2022-09-15T22:50:39.600Z,16.10
2022-09-15T22:53:06.432Z,16.10
2022-09-15T22:55:33.279Z,16.10
2022-09-15T22:58:00.136Z,16.10
2022-09-15T23:00:27.165Z,16.10
2022-09-15T23:02:54.112Z,16.00
2022-09-15T23:05:21.058Z,16.00
2022-09-15T23:07:47.872Z,16.00
2022-09-15T23:10:14.866Z,15.90
2022-09-15T23:12:41.685Z,16.00
2022-09-15T23:15:08.967Z,15.90
2022-09-15T23:17:35.834Z,15.80
2022-09-15T23:20:02.874Z,15.80
2022-09-15T23:22:29.754Z,15.70
2022-09-15T23:24:57.561Z,15.70
2022-09-15T23:27:24.483Z,15.70
2022-09-15T23:29:51.337Z,15.60
2022-09-15T23:32:18.137Z,15.60
2022-09-15T23:34:44.984Z,15.60
2022-09-15T23:37:13.266Z,15.50
2022-09-15T23:39:40.421Z,15.50
2022-09-15T23:42:07.614Z,15.50
2022-09-15T23:44:34.506Z,15.50
2022-09-15T23:47:01.393Z,15.50
2022-09-15T23:49:28.206Z,15.50
2022-09-15T23:51:54.980Z,15.50
2022-09-15T23:54:21.831Z,15.50
2022-09-15T23:56:48.579Z,15.40
2022-09-15T23:59:15.452Z,15.30
